Time;durP1;ratioP1;P1;durP2;ratioP2;P2;SDS_P1;SDS_P2;PMS_P1;PMS_P2;Temp;Humidity;BMP_temperature;BMP_pressure;BME280_temperature;BME280_humidity;BME280_pressure;Samples;Min_cycle;Max_cycle;Signal;HPM_P1;HPM_P2
2021/03/28 00:01:50;;;;;;;13.47;9.70;;;;;;;6.87;62.20;95872.47;4934044;29;20895;-77
2021/03/28 00:04:20;;;;;;;12.23;9.53;;;;;;;6.80;62.33;95867.59;4933698;29;20450;-76
2021/03/28 00:07:01;;;;;;;12.63;9.43;;;;;;;6.79;62.42;95870.28;4902259;29;21738;-76
2021/03/28 00:09:39;;;;;;;15.60;10.30;;;;;;;6.84;62.28;95876.94;4934057;29;20916;-76
2021/03/28 00:12:12;;;;;;;13.17;9.30;;;;;;;6.83;62.14;95875.25;4933846;29;20553;-77
2021/03/28 00:14:45;;;;;;;22.40;12.80;;;;;;;6.69;63.55;95874.34;4933844;29;20491;-77
2021/03/28 00:17:29;;;;;;;24.10;14.50;;;;;;;6.73;63.22;95888.88;4966395;28;20511;-76
2021/03/28 00:19:59;;;;;;;21.03;15.93;;;;;;;6.72;63.67;95880.22;4992158;28;20983;-77
2021/03/28 00:22:31;;;;;;;28.33;16.57;;;;;;;6.76;63.96;95886.09;4991834;28;20436;-77
2021/03/28 00:25:06;;;;;;;28.90;18.20;;;;;;;6.61;64.70;95882.53;4991597;28;20464;-77
2021/03/28 00:27:49;;;;;;;30.57;19.10;;;;;;;6.76;64.98;95888.72;4991695;28;20944;-77
2021/03/28 00:30:26;;;;;;;34.50;19.80;;;;;;;6.85;64.60;95888.22;4993166;28;20547;-76
2021/03/28 00:32:57;;;;;;;31.93;19.27;;;;;;;6.93;64.78;95890.41;4996114;28;20483;-76
2021/03/28 00:35:28;;;;;;;32.30;20.53;;;;;;;6.95;64.83;95883.34;4995150;28;20452;-76
2021/03/28 00:38:09;;;;;;;36.07;18.80;;;;;;;6.98;64.09;95888.41;5008697;28;20453;-75
2021/03/28 00:40:36;;;;;;;29.40;19.40;;;;;;;6.98;64.31;95891.00;5037224;28;20428;-76
2021/03/28 00:43:14;;;;;;;29.70;19.70;;;;;;;7.00;64.33;95891.78;5037014;28;20503;-76
2021/03/28 00:46:02;;;;;;;28.00;19.93;;;;;;;7.00;64.40;95889.16;5036837;28;20445;-76
2021/03/28 00:48:32;;;;;;;30.50;19.50;;;;;;;7.00;64.69;95900.44;4994779;28;20444;-76
2021/03/28 00:51:09;;;;;;;50.90;25.47;;;;;;;6.95;64.52;95897.25;4995441;28;20426;-75
2021/03/28 00:53:41;;;;;;;40.73;24.87;;;;;;;6.86;65.37;95897.72;4995216;28;20487;-77
2021/03/28 00:56:13;;;;;;;37.07;22.50;;;;;;;6.90;65.60;95904.44;4995142;28;20432;-76
2021/03/28 00:58:48;;;;;;;36.43;22.70;;;;;;;6.90;64.71;95906.22;4994884;28;20977;-76
2021/03/28 01:01:23;;;;;;;33.87;22.10;;;;;;;6.89;65.29;95908.00;4994870;28;20474;-76
2021/03/28 01:04:08;;;;;;;29.93;18.70;;;;;;;6.86;64.46;95908.16;4994710;28;20854;-77
2021/03/28 01:06:42;;;;;;;22.57;14.77;;;;;;;6.83;64.52;95900.50;4994922;28;20506;-76
2021/03/28 01:09:19;;;;;;;22.40;12.73;;;;;;;6.83;64.03;95898.72;4994830;28;20452;-76
2021/03/28 01:12:04;;;;;;;17.00;11.40;;;;;;;6.83;63.76;95893.50;4994633;28;20444;-76
2021/03/28 01:14:47;;;;;;;14.47;10.93;;;;;;;6.77;63.51;95898.22;4994640;28;20448;-76
2021/03/28 01:17:43;;;;;;;16.43;11.47;;;;;;;6.69;63.74;95901.25;4994857;28;20455;-76
2021/03/28 01:20:30;;;;;;;16.40;9.83;;;;;;;6.63;64.26;95896.34;4994555;28;20448;-76
2021/03/28 01:23:22;;;;;;;14.00;10.10;;;;;;;6.53;65.04;95889.94;4936436;29;20446;-76
2021/03/28 01:26:14;;;;;;;16.60;11.00;;;;;;;6.41;65.65;95890.59;4937655;29;20520;-76
2021/03/28 01:28:49;;;;;;;15.80;11.13;;;;;;;6.37;65.15;95887.31;4955659;29;20446;-76
2021/03/28 01:31:36;;;;;;;14.50;10.37;;;;;;;6.34;65.27;95892.66;4955554;29;20453;-76
2021/03/28 01:34:15;;;;;;;13.90;9.50;;;;;;;6.24;65.47;95885.41;4955417;29;20492;-76
2021/03/28 01:36:45;;;;;;;12.93;9.17;;;;;;;6.25;65.96;95890.53;4955684;29;20950;-77
2021/03/28 01:39:19;;;;;;;16.83;10.00;;;;;;;6.23;66.38;95887.16;4923476;29;20441;-76
2021/03/28 01:41:55;;;;;;;16.10;10.07;;;;;;;6.15;65.69;95884.97;4955027;28;20453;-76
2021/03/28 01:44:29;;;;;;;13.73;10.77;;;;;;;6.12;65.99;95897.31;4955069;29;20453;-76
2021/03/28 01:47:21;;;;;;;14.43;9.50;;;;;;;6.11;66.60;95888.66;4955402;29;20544;-76
2021/03/28 01:50:09;;;;;;;17.77;10.53;;;;;;;6.04;66.48;95892.47;4866953;29;20452;-76
2021/03/28 01:52:41;;;;;;;13.30;9.40;;;;;;;6.08;66.01;95894.03;4860821;29;20547;-76
2021/03/28 01:55:15;;;;;;;13.40;9.13;;;;;;;6.07;65.78;95892.34;4861074;29;20903;-77
2021/03/28 01:57:52;;;;;;;9.63;8.23;;;;;;;6.04;65.88;95887.25;4830950;29;20594;-76
2021/03/28 02:00:31;;;;;;;13.87;10.50;;;;;;;6.03;65.12;95887.34;4852556;29;20480;-76
2021/03/28 02:03:04;;;;;;;15.80;11.10;;;;;;;6.04;66.14;95897.69;4909966;29;20852;-76
2021/03/28 02:05:53;;;;;;;14.90;10.43;;;;;;;5.99;65.64;95897.06;4916644;29;20451;-76
2021/03/28 02:08:27;;;;;;;17.20;9.70;;;;;;;6.00;66.09;95888.34;4916930;29;20452;-76
2021/03/28 02:11:07;;;;;;;15.60;10.50;;;;;;;6.07;66.64;95894.94;4916791;29;20448;-76
2021/03/28 02:13:51;;;;;;;14.13;9.67;;;;;;;6.10;66.49;95888.72;4916814;29;20498;-76
2021/03/28 02:16:23;;;;;;;12.67;9.80;;;;;;;6.11;66.37;95893.03;4888343;29;20452;-76
2021/03/28 02:19:00;;;;;;;14.63;9.77;;;;;;;6.11;66.18;95887.81;4916830;29;20462;-78
2021/03/28 02:21:46;;;;;;;16.10;9.60;;;;;;;6.15;65.70;95890.19;4886404;29;20840;-76
2021/03/28 02:24:18;;;;;;;15.30;10.47;;;;;;;6.17;66.23;95895.31;4916786;29;20514;-76
2021/03/28 02:26:49;;;;;;;14.03;9.67;;;;;;;6.20;65.92;95893.38;4937265;28;20475;-76
2021/03/28 02:29:26;;;;;;;12.27;9.83;;;;;;;6.21;65.72;95900.28;5004796;28;20443;-76
2021/03/28 02:32:15;;;;;;;28.10;16.37;;;;;;;6.08;65.91;95899.25;5035446;28;20446;-76
2021/03/28 02:34:53;;;;;;;24.40;16.40;;;;;;;6.09;65.91;95900.09;5034786;28;20454;-76
2021/03/28 02:37:26;;;;;;;24.63;16.83;;;;;;;6.07;65.80;95907.97;5035124;28;20454;-76
2021/03/28 02:39:57;;;;;;;27.90;18.50;;;;;;;6.08;66.74;95908.81;5034943;28;20441;-76
2021/03/28 02:42:33;;;;;;;31.60;19.63;;;;;;;6.05;67.11;95914.16;5034807;28;20450;-77
2021/03/28 02:45:17;;;;;;;29.70;17.53;;;;;;;6.07;66.12;95913.19;5034838;28;20511;-76
2021/03/28 02:48:18;;;;;;;28.10;19.10;;;;;;;6.09;67.02;95911.34;5034927;28;20539;-76
2021/03/28 02:51:15;;;;;;;31.27;19.33;;;;;;;6.09;66.24;95919.16;5035050;28;20461;-76
2021/03/28 02:54:11;;;;;;;28.60;19.07;;;;;;;6.08;67.18;95921.84;5032268;28;20481;-76
2021/03/28 02:56:53;;;;;;;29.73;20.13;;;;;;;6.00;66.70;95923.97;5035026;28;20438;-76
2021/03/28 02:59:31;;;;;;;33.53;21.30;;;;;;;6.00;67.03;95927.41;5034533;28;20430;-76
2021/03/28 03:02:40;;;;;;;32.00;20.17;;;;;;;6.01;67.26;95934.31;5034950;28;20492;-76
2021/03/28 03:05:21;;;;;;;35.77;23.37;;;;;;;6.02;67.90;95935.16;4992740;28;20452;-76
2021/03/28 03:07:59;;;;;;;29.20;19.27;;;;;;;6.01;67.76;95926.50;4993061;28;20448;-76
2021/03/28 03:10:51;;;;;;;33.20;23.00;;;;;;;6.04;67.92;95933.31;4992827;28;20459;-76
2021/03/28 03:13:31;;;;;;;38.13;23.40;;;;;;;6.03;67.75;95932.47;4992722;28;20506;-76
2021/03/28 03:16:01;;;;;;;40.37;22.80;;;;;;;6.02;68.00;95935.16;4992418;28;20466;-76
2021/03/28 03:18:53;;;;;;;35.50;23.10;;;;;;;6.02;68.47;95936.00;4992754;28;20440;-76
2021/03/28 03:21:53;;;;;;;46.17;27.57;;;;;;;5.99;67.91;95930.94;4992116;28;20499;-76
2021/03/28 03:25:10;;;;;;;28.47;20.77;;;;;;;6.01;67.91;95944.72;4992464;28;20451;-76
2021/03/28 03:28:18;;;;;;;22.17;12.80;;;;;;;5.96;67.96;95946.72;4992476;28;20502;-76
2021/03/28 03:31:06;;;;;;;17.33;11.80;;;;;;;5.93;67.22;95951.25;4934436;29;20513;-76
2021/03/28 03:34:23;;;;;;;13.23;10.77;;;;;;;5.88;67.90;95954.06;4934108;29;20599;-76
2021/03/28 03:37:24;;;;;;;13.83;11.17;;;;;;;5.83;68.11;95956.06;4859283;29;20576;-76
2021/03/28 03:40:17;;;;;;;15.03;10.17;;;;;;;5.81;67.93;95957.88;4859519;29;20505;-76
2021/03/28 03:43:00;;;;;;;23.83;12.87;;;;;;;5.71;67.48;95959.25;4913021;29;20451;-76
2021/03/28 03:45:44;;;;;;;15.00;10.33;;;;;;;5.64;67.99;95950.88;4915515;29;20451;-76
2021/03/28 03:48:20;;;;;;;17.10;11.23;;;;;;;5.60;68.24;95958.00;4915464;29;20440;-76
2021/03/28 03:51:08;;;;;;;17.17;10.60;;;;;;;5.62;68.37;95954.47;4915358;29;20467;-76
2021/03/28 03:53:49;;;;;;;20.97;11.40;;;;;;;5.58;68.50;95952.03;4914850;29;21066;-76
2021/03/28 03:56:21;;;;;;;14.87;10.10;;;;;;;5.59;68.51;95947.66;4914836;29;20467;-76
2021/03/28 03:59:03;;;;;;;15.33;10.13;;;;;;;5.53;69.20;95954.03;4915009;29;20525;-76
2021/03/28 04:01:36;;;;;;;12.90;9.87;;;;;;;5.54;69.01;95960.91;4914814;29;20569;-76
2021/03/28 04:04:12;;;;;;;14.17;9.83;;;;;;;5.49;68.88;95955.09;4914573;29;20804;-76
2021/03/28 04:07:02;;;;;;;17.00;11.00;;;;;;;5.53;69.03;95958.38;4915642;28;20451;-76
2021/03/28 04:09:37;;;;;;;20.57;13.00;;;;;;;5.52;68.35;95962.75;4972666;28;20949;-76
2021/03/28 04:12:41;;;;;;;17.50;11.40;;;;;;;5.51;67.97;95966.28;4956213;28;20459;-76
2021/03/28 04:15:26;;;;;;;14.00;9.40;;;;;;;5.51;68.68;95968.03;4991674;28;20455;-77
2021/03/28 04:18:08;;;;;;;16.33;10.87;;;;;;;5.53;68.70;95971.41;4914951;29;20451;-76
2021/03/28 04:20:46;;;;;;;15.10;10.47;;;;;;;5.53;68.31;95977.44;4914987;29;20821;-76
2021/03/28 04:23:39;;;;;;;19.87;12.73;;;;;;;5.55;67.73;95979.97;4914713;29;20459;-76
2021/03/28 04:26:24;;;;;;;16.37;12.60;;;;;;;5.53;68.54;95979.22;4877194;29;21065;-76
2021/03/28 04:28:54;;;;;;;23.90;14.00;;;;;;;5.53;67.69;95982.66;4877212;29;20460;-76
2021/03/28 04:31:46;;;;;;;18.87;12.63;;;;;;;5.69;68.54;95987.13;4847190;29;20465;-76
2021/03/28 04:34:17;;;;;;;19.37;12.60;;;;;;;5.73;67.36;95986.88;4877124;29;20857;-76
2021/03/28 04:36:56;;;;;;;25.77;17.10;;;;;;;5.81;67.36;95995.19;4846195;29;20447;-77
2021/03/28 04:39:45;;;;;;;19.63;14.03;;;;;;;5.94;67.51;95984.19;4877333;29;20449;-76
2021/03/28 04:42:55;;;;;;;18.33;12.37;;;;;;;6.32;66.47;96006.59;4877257;29;20445;-76
2021/03/28 04:45:42;;;;;;;24.80;14.37;;;;;;;6.72;65.01;96000.19;4858899;29;20877;-76
2021/03/28 04:48:29;;;;;;;33.97;18.53;;;;;;;7.26;63.15;96000.81;4843004;29;20446;-76
2021/03/28 04:51:30;;;;;;;36.13;19.53;;;;;;;7.91;60.98;95996.31;4858692;29;20478;-76
2021/03/28 04:54:22;;;;;;;63.07;29.33;;;;;;;8.29;59.53;96004.56;4879455;29;20516;-76
2021/03/28 04:57:20;;;;;;;65.13;31.37;;;;;;;8.58;58.05;96008.13;4933262;29;20577;-77
2021/03/28 05:00:02;;;;;;;124.60;50.10;;;;;;;8.63;57.48;96013.09;4933374;29;20497;-76
2021/03/28 05:02:50;;;;;;;95.57;43.87;;;;;;;8.54;57.98;96019.72;4945210;28;20481;-76
2021/03/28 05:05:38;;;;;;;116.13;50.17;;;;;;;8.55;57.80;96023.19;4971875;28;20445;-76
2021/03/28 05:08:37;;;;;;;136.10;55.40;;;;;;;8.53;57.87;96027.66;4971742;28;20984;-76
2021/03/28 05:11:40;;;;;;;90.37;43.47;;;;;;;8.47;58.31;96026.25;4971935;28;20449;-77
2021/03/28 05:14:53;;;;;;;59.03;29.80;;;;;;;8.88;58.77;96029.03;4971848;28;20535;-76
2021/03/28 05:18:04;;;;;;;52.10;30.20;;;;;;;9.56;57.02;96033.63;5036025;28;20444;-77
2021/03/28 05:21:13;;;;;;;32.40;23.73;;;;;;;10.35;55.10;96025.91;5017715;28;20788;-76
2021/03/28 05:24:29;;;;;;;38.70;23.40;;;;;;;11.02;52.39;96021.41;4994425;28;20451;-77
2021/03/28 05:27:55;;;;;;;41.97;24.43;;;;;;;11.55;50.55;96019.44;4936516;29;20443;-76
2021/03/28 05:30:56;;;;;;;33.97;22.53;;;;;;;11.78;49.63;96018.69;4898699;29;20563;-77
2021/03/28 05:33:49;;;;;;;30.03;22.63;;;;;;;11.92;49.13;96027.38;4898679;29;20907;-76
2021/03/28 05:36:44;;;;;;;28.17;19.50;;;;;;;13.47;49.82;96031.50;4898358;29;20449;-75
2021/03/28 05:39:44;;;;;;;37.03;23.17;;;;;;;13.74;46.15;96032.94;4898281;29;20445;-75
2021/03/28 05:42:30;;;;;;;41.43;24.87;;;;;;;13.44;44.48;96026.47;4898611;29;20445;-79
2021/03/28 05:45:28;;;;;;;38.33;27.10;;;;;;;12.60;46.06;96045.19;4898359;29;20945;-76
2021/03/28 05:48:40;;;;;;;32.73;21.80;;;;;;;11.69;48.75;96036.88;4898401;29;20449;-76
2021/03/28 05:51:40;;;;;;;31.70;20.40;;;;;;;10.94;50.96;96047.31;4879443;29;20457;-76
2021/03/28 06:01:09;;;;;;;41.20;24.17;;;;;;;10.26;54.32;96059.78;4818129;29;20511;-77
2021/03/28 06:04:35;;;;;;;43.30;25.93;;;;;;;10.06;55.26;96066.25;4836910;29;20451;-77
2021/03/28 06:07:38;;;;;;;33.40;21.90;;;;;;;10.58;54.84;96076.88;4861026;29;20469;-77
2021/03/28 06:10:42;;;;;;;32.00;21.13;;;;;;;10.98;52.88;96069.81;4860742;29;20467;-78
2021/03/28 06:13:33;;;;;;;30.67;20.60;;;;;;;10.79;52.05;96072.00;4787956;29;20588;-78
2021/03/28 06:16:34;;;;;;;34.30;20.60;;;;;;;10.84;51.93;96075.16;4788301;30;20958;-78
2021/03/28 06:19:39;;;;;;;28.10;20.17;;;;;;;11.35;52.65;96062.91;4786989;30;21033;-79
2021/03/28 06:34:13;;;;;;;25.90;18.57;;;;;;;13.32;46.02;96070.44;4751121;29;20485;-79
2021/03/28 06:37:21;;;;;;;29.10;17.37;;;;;;;13.64;45.88;96080.28;4823391;29;20465;-79
2021/03/28 06:40:41;;;;;;;32.90;23.10;;;;;;;13.46;46.36;96072.00;4823389;29;20471;-79
2021/03/28 06:44:06;;;;;;;32.37;23.30;;;;;;;13.66;46.20;96078.38;4823535;29;20457;-79
2021/03/28 06:47:14;;;;;;;31.77;22.07;;;;;;;14.14;46.54;96076.28;4823576;29;20464;-79
2021/03/28 06:50:02;;;;;;;33.37;23.10;;;;;;;14.26;44.65;96077.97;4799445;29;20460;-78
2021/03/28 06:52:53;;;;;;;30.97;21.77;;;;;;;14.13;44.39;96079.88;4823340;29;20460;-81
2021/03/28 06:55:41;;;;;;;29.13;20.80;;;;;;;14.04;44.40;96074.50;4823608;29;20458;-80
2021/03/28 06:58:49;;;;;;;32.53;21.53;;;;;;;13.99;45.26;96074.88;4823168;29;20464;-80
2021/03/28 07:01:52;;;;;;;48.23;21.53;;;;;;;13.88;45.67;96085.47;4834349;29;20480;-80
2021/03/28 07:05:00;;;;;;;35.43;19.93;;;;;;;13.84;44.60;96086.63;4878535;29;20441;-78
2021/03/28 07:07:46;;;;;;;25.43;15.97;;;;;;;14.08;44.77;96089.97;4915769;29;20458;-79
2021/03/28 07:10:34;;;;;;;29.53;18.30;;;;;;;13.68;45.07;96081.72;4916078;29;20466;-79
2021/03/28 07:13:30;;;;;;;25.10;17.27;;;;;;;13.70;44.47;96092.16;4966095;28;20579;-80
2021/03/28 07:16:21;;;;;;;24.50;15.67;;;;;;;14.07;43.37;96087.47;4973117;28;20451;-80
2021/03/28 07:19:19;;;;;;;23.90;16.83;;;;;;;14.30;43.58;96096.19;4896768;29;20466;-78
2021/03/28 07:22:00;;;;;;;21.47;15.47;;;;;;;14.49;42.77;96096.44;4859578;29;20456;-80
2021/03/28 07:25:15;;;;;;;25.70;17.60;;;;;;;13.88;44.42;96102.13;4859420;29;20463;-78
2021/03/28 07:28:24;;;;;;;33.33;19.90;;;;;;;13.86;45.90;96093.47;4934085;29;20524;-78
2021/03/28 07:31:18;;;;;;;27.03;16.47;;;;;;;14.33;44.87;96088.03;4934588;29;20199;-79
2021/03/28 07:34:13;;;;;;;26.83;18.00;;;;;;;13.97;44.80;96097.91;4934248;29;21139;-82
2021/03/28 07:37:21;;;;;;;29.70;17.90;;;;;;;13.70;44.88;96100.06;4934591;29;20448;-81
2021/03/28 07:40:17;;;;;;;24.20;16.80;;;;;;;13.38;46.49;96100.75;4840870;29;20498;-79
2021/03/28 07:43:26;;;;;;;27.43;19.60;;;;;;;13.15;46.95;96099.00;4840990;29;20448;-79
2021/03/28 07:46:20;;;;;;;24.13;16.20;;;;;;;12.89;47.36;96100.97;4757052;30;20453;-79
2021/03/28 07:49:07;;;;;;;25.37;17.33;;;;;;;12.66;48.22;96113.19;4788578;30;20844;-81
2021/03/28 07:52:00;;;;;;;26.70;17.43;;;;;;;12.56;48.23;96106.91;4787364;30;20515;-83
2021/03/28 07:54:55;;;;;;;30.47;19.30;;;;;;;12.44;47.84;96113.09;4788810;30;20590;-80
2021/03/28 07:57:50;;;;;;;24.20;18.97;;;;;;;12.52;48.77;96116.00;4842361;29;20902;-80
2021/03/28 08:00:41;;;;;;;29.80;19.50;;;;;;;12.55;49.25;96115.78;4917452;29;20483;-81
2021/03/28 08:03:30;;;;;;;30.40;21.37;;;;;;;12.71;49.14;96116.31;4903309;29;20442;-82
2021/03/28 08:06:17;;;;;;;29.73;20.10;;;;;;;12.86;47.97;96122.25;4916291;29;20528;-81
2021/03/28 08:09:21;;;;;;;32.40;22.30;;;;;;;13.09;48.66;96123.19;4901707;29;20837;-79
2021/03/28 08:12:03;;;;;;;35.78;22.63;;;;;;;13.23;47.17;96125.63;4842780;29;20461;-80
2021/03/28 08:15:04;;;;;;;36.00;21.30;;;;;;;13.68;47.20;96123.94;4840726;29;20316;-78
2021/03/28 08:17:41;;;;;;;37.30;22.33;;;;;;;13.92;46.72;96116.75;4863960;29;20455;-81
2021/03/28 08:20:40;;;;;;;30.93;20.20;;;;;;;14.52;46.73;96110.22;4879310;29;20781;-90
2021/03/28 08:23:35;;;;;;;37.50;22.13;;;;;;;14.84;45.81;96114.69;4878843;29;20465;-89
2021/03/28 08:26:22;;;;;;;39.10;23.30;;;;;;;15.07;45.23;96118.06;4877514;29;20458;-81
2021/03/28 08:29:28;;;;;;;38.77;23.70;;;;;;;15.42;44.55;96110.66;4877643;29;20517;-81
2021/03/28 08:32:11;;;;;;;40.60;24.60;;;;;;;15.75;43.32;96109.63;4840509;29;20858;-80
2021/03/28 08:35:27;;;;;;;29.17;19.50;;;;;;;15.70;43.17;96109.19;4841807;29;20494;-81
2021/03/28 08:38:33;;;;;;;28.58;19.85;;;;;;;15.97;42.94;96098.03;4840027;29;20598;-81
2021/03/28 08:41:28;;;;;;;34.03;16.77;;;;;;;16.08;42.69;96100.56;4840585;29;20279;-82
2021/03/28 08:44:25;;;;;;;22.83;12.30;;;;;;;15.97;42.24;96099.84;4840626;29;20460;-80
2021/03/28 08:47:16;;;;;;;14.60;10.87;;;;;;;15.97;42.07;96094.53;4840312;29;20455;-80
2021/03/28 08:49:50;;;;;;;15.30;11.33;;;;;;;15.94;43.84;96089.50;4902850;29;20492;-79
2021/03/28 08:52:56;;;;;;;23.43;11.70;;;;;;;15.98;43.60;96085.63;4918896;29;20443;-79
2021/03/28 08:55:47;;;;;;;24.70;13.07;;;;;;;16.11;43.97;96102.94;5007920;28;20468;-80
2021/03/28 08:58:21;;;;;;;20.90;12.63;;;;;;;16.13;43.39;96088.72;4918055;29;20454;-77
2021/03/28 09:00:58;;;;;;;18.63;10.60;;;;;;;16.27;44.01;96094.50;4918783;29;20488;-78
2021/03/28 09:03:54;;;;;;;19.63;10.37;;;;;;;16.47;44.37;96098.00;4918356;29;20456;-80
2021/03/28 09:06:31;;;;;;;22.03;11.50;;;;;;;16.51;43.43;96083.53;4918866;29;20565;-81
2021/03/28 09:09:04;;;;;;;16.00;10.77;;;;;;;16.56;43.07;96081.31;4950944;28;20923;-79
2021/03/28 09:11:58;;;;;;;13.93;10.73;;;;;;;16.73;43.58;96083.28;4975430;28;20430;-79
2021/03/28 09:14:47;;;;;;;19.83;9.57;;;;;;;16.58;43.49;96087.31;4976389;28;20525;-81
2021/03/28 09:17:23;;;;;;;13.80;9.40;;;;;;;16.54;43.12;96085.06;4975813;28;20451;-80
2021/03/28 09:20:27;;;;;;;18.43;9.43;;;;;;;16.49;44.43;96085.50;4981837;28;20461;-81
2021/03/28 09:23:14;;;;;;;19.87;10.70;;;;;;;16.57;45.51;96085.63;4880655;29;20460;-80
2021/03/28 09:25:54;;;;;;;16.07;11.00;;;;;;;16.62;44.25;96080.75;4899356;29;20873;-81
2021/03/28 09:28:34;;;;;;;17.00;11.07;;;;;;;16.67;44.85;96089.16;4898946;29;20450;-81
2021/03/28 09:31:09;;;;;;;16.53;10.47;;;;;;;16.40;45.31;96075.69;4898358;29;20462;-80
2021/03/28 09:33:51;;;;;;;13.13;9.73;;;;;;;16.22;45.52;96087.94;4898226;29;20494;-81
2021/03/28 09:36:55;;;;;;;13.63;10.53;;;;;;;15.98;46.31;96082.97;4964124;28;20455;-80
2021/03/28 09:40:03;;;;;;;17.83;13.13;;;;;;;16.03;46.89;96086.06;4905582;29;20457;-82
2021/03/28 09:42:43;;;;;;;17.43;12.17;;;;;;;16.14;47.26;96077.16;4842447;29;20469;-80
2021/03/28 09:45:48;;;;;;;14.63;10.43;;;;;;;16.10;47.07;96082.72;4842765;29;20475;-81
2021/03/28 09:48:40;;;;;;;11.37;10.27;;;;;;;16.10;47.07;96080.06;4842474;29;20445;-80
2021/03/28 09:51:49;;;;;;;12.90;10.70;;;;;;;16.16;47.60;96084.00;4843064;29;20453;-80
2021/03/28 09:55:15;;;;;;;21.50;12.80;;;;;;;16.36;48.34;96079.59;4788189;30;20586;-80
2021/03/28 09:58:08;;;;;;;18.73;11.83;;;;;;;16.40;47.65;96075.69;4738986;30;20553;-80
2021/03/28 10:00:55;;;;;;;18.30;12.00;;;;;;;16.36;47.91;96069.00;4792713;29;20612;-79
2021/03/28 10:03:27;;;;;;;19.30;11.17;;;;;;;16.05;50.00;96068.22;4787633;29;20501;-80
2021/03/28 10:06:02;;;;;;;18.73;13.57;;;;;;;15.93;49.76;96083.38;4787133;29;21025;-80
2021/03/28 10:08:36;;;;;;;24.10;14.77;;;;;;;15.82;50.64;96070.22;4787252;29;20488;-81
2021/03/28 10:11:19;;;;;;;20.40;13.90;;;;;;;16.00;52.75;96087.16;4787154;29;20463;-81
2021/03/28 10:14:16;;;;;;;13.83;11.27;;;;;;;15.97;51.62;96095.38;4786713;29;20582;-81
2021/03/28 10:16:53;;;;;;;20.30;10.93;;;;;;;15.95;51.84;96091.19;4852514;29;20444;-82
2021/03/28 10:19:27;;;;;;;14.30;11.13;;;;;;;15.98;53.06;96085.63;4895928;29;20438;-79
2021/03/28 10:22:05;;;;;;;15.93;10.00;;;;;;;15.91;52.87;96090.63;4902872;29;20442;-80
2021/03/28 10:25:12;;;;;;;11.47;9.80;;;;;;;15.82;52.25;96078.16;4917792;29;20934;-79
2021/03/28 10:28:27;;;;;;;12.70;9.70;;;;;;;15.75;53.36;96082.31;4816331;29;20477;-81
2021/03/28 10:31:12;;;;;;;10.17;9.13;;;;;;;15.87;54.06;96081.25;4849044;29;20487;-79
2021/03/28 10:33:53;;;;;;;20.80;12.67;;;;;;;16.03;52.51;96075.47;4907406;29;20512;-80
2021/03/28 10:36:31;;;;;;;15.30;10.03;;;;;;;15.96;53.46;96072.53;4917356;29;20448;-81
2021/03/28 10:39:14;;;;;;;13.00;10.40;;;;;;;16.01;53.74;96078.25;4917160;29;20846;-80
2021/03/28 10:41:53;;;;;;;12.00;9.50;;;;;;;16.15;53.60;96082.31;4887441;29;20465;-80
2021/03/28 10:44:30;;;;;;;12.00;9.40;;;;;;;16.27;53.82;96075.13;4916343;29;20464;-80
2021/03/28 10:47:32;;;;;;;13.60;10.57;;;;;;;16.44;53.65;96074.44;4916232;29;20475;-79
2021/03/28 10:50:26;;;;;;;36.27;23.80;;;;;;;16.56;54.63;96085.78;4897611;29;20456;-80
2021/03/28 10:53:26;;;;;;;31.93;21.97;;;;;;;16.22;54.47;96088.78;4910137;29;20893;-80
2021/03/28 10:56:27;;;;;;;23.13;20.03;;;;;;;16.00;55.48;96087.16;4915965;29;20525;-80
2021/03/28 10:59:36;;;;;;;24.83;20.00;;;;;;;16.17;55.29;96092.78;4905035;29;20922;-77
2021/03/28 11:02:36;;;;;;;18.60;15.40;;;;;;;16.22;54.36;96101.19;4915760;29;20487;-79
2021/03/28 11:05:41;;;;;;;13.60;10.97;;;;;;;16.17;55.08;96095.44;5031714;28;20455;-79
2021/03/28 11:08:30;;;;;;;22.13;15.53;;;;;;;16.04;55.50;96091.22;5054049;28;20806;-80
2021/03/28 11:11:30;;;;;;;15.37;12.77;;;;;;;15.97;56.60;96099.84;4969482;28;20447;-81
2021/03/28 11:14:10;;;;;;;16.47;12.40;;;;;;;15.85;57.24;96096.41;5011500;28;20484;-80
2021/03/28 11:17:02;;;;;;;31.73;19.03;;;;;;;15.87;58.54;96099.78;5012200;28;20493;-80
2021/03/28 11:19:59;;;;;;;15.97;10.70;;;;;;;15.74;57.50;96112.41;4934726;29;21055;-80
2021/03/28 11:22:37;;;;;;;12.23;9.40;;;;;;;15.48;58.89;96096.91;4934755;29;20452;-79
2021/03/28 11:25:18;;;;;;;32.50;21.30;;;;;;;15.31;59.17;96120.44;4934674;29;20452;-79
2021/03/28 11:28:15;;;;;;;18.20;13.20;;;;;;;15.18;59.88;96110.06;4934692;29;20459;-80
2021/03/28 11:30:44;;;;;;;13.00;10.67;;;;;;;14.99;59.83;96101.97;4934633;29;20548;-80
2021/03/28 11:33:17;;;;;;;14.27;11.77;;;;;;;14.90;60.00;96108.88;4934877;29;20855;-80
2021/03/28 11:36:04;;;;;;;61.78;40.40;;;;;;;14.97;60.34;96110.03;4902565;29;20449;-80
2021/03/28 11:38:37;;;;;;;32.87;23.27;;;;;;;15.14;59.22;96100.72;4934420;29;20191;-80
2021/03/28 11:41:39;;;;;;;25.30;20.27;;;;;;;15.30;58.83;96106.38;4934538;29;20964;-80
2021/03/28 11:44:32;;;;;;;13.20;11.33;;;;;;;15.32;58.45;96100.97;4840732;29;20466;-80
2021/03/28 11:47:14;;;;;;;17.80;12.27;;;;;;;15.22;58.97;96102.72;4839454;29;20477;-81
2021/03/28 11:49:55;;;;;;;21.60;13.70;;;;;;;15.16;59.12;96101.44;4877738;29;20449;-80
2021/03/28 11:52:27;;;;;;;21.73;14.27;;;;;;;15.17;59.34;96098.66;4877976;29;20966;-81
2021/03/28 11:55:06;;;;;;;18.60;13.60;;;;;;;15.23;58.63;96088.53;4877829;29;20515;-80
2021/03/28 11:57:34;;;;;;;17.73;13.00;;;;;;;15.31;58.53;96096.66;4966838;28;20441;-80
2021/03/28 12:00:39;;;;;;;14.83;11.90;;;;;;;15.37;57.61;96093.50;4923075;28;20577;-80
2021/03/28 12:03:37;;;;;;;22.07;14.60;;;;;;;15.33;58.98;96097.38;4973061;28;20458;-80
2021/03/28 12:06:29;;;;;;;16.57;13.40;;;;;;;15.38;58.34;96097.81;4972842;28;20529;-81
2021/03/28 12:09:01;;;;;;;18.60;15.20;;;;;;;15.37;58.23;96090.88;4973149;28;20461;-80
2021/03/28 12:11:47;;;;;;;18.80;14.30;;;;;;;15.35;58.51;96093.63;4972648;28;20429;-80
2021/03/28 12:14:29;;;;;;;24.50;16.80;;;;;;;15.18;57.84;96097.69;4972498;28;20481;-81
2021/03/28 12:17:28;;;;;;;18.13;15.93;;;;;;;15.15;58.79;96097.13;4972669;28;20461;-80
2021/03/28 12:20:02;;;;;;;22.47;14.20;;;;;;;15.03;59.30;96088.38;4972760;28;20785;-82
2021/03/28 12:22:32;;;;;;;19.37;16.40;;;;;;;15.14;60.65;96076.94;5033473;28;20442;-80
2021/03/28 12:25:05;;;;;;;20.90;15.73;;;;;;;15.21;58.48;96069.31;5035199;28;20430;-80
2021/03/28 12:27:39;;;;;;;22.03;16.10;;;;;;;15.13;57.96;96072.59;5037613;28;20450;-79
2021/03/28 12:30:31;;;;;;;22.23;17.70;;;;;;;15.19;58.90;96074.72;5037034;28;20486;-79
2021/03/28 12:33:05;;;;;;;20.17;16.53;;;;;;;15.15;57.42;96076.78;5037499;28;20448;-78
2021/03/28 12:35:36;;;;;;;19.23;16.17;;;;;;;15.03;57.52;96080.44;5037377;28;20522;-78
2021/03/28 12:38:38;;;;;;;22.07;16.83;;;;;;;14.84;57.40;96086.44;5037389;28;20454;-78
2021/03/28 12:41:35;;;;;;;21.47;17.30;;;;;;;14.85;57.49;96080.19;4995780;28;20448;-78
2021/03/28 12:44:33;;;;;;;24.67;17.67;;;;;;;14.88;57.70;96074.66;4937417;29;20467;-78
2021/03/28 12:47:06;;;;;;;20.73;16.43;;;;;;;14.68;57.59;96070.16;4937344;29;20452;-79
2021/03/28 12:49:46;;;;;;;27.07;18.20;;;;;;;14.78;58.32;96060.53;4921732;29;20454;-78
2021/03/28 12:52:40;;;;;;;26.43;17.10;;;;;;;14.69;57.87;96060.44;4949562;29;20528;-79
2021/03/28 12:55:35;;;;;;;22.33;16.13;;;;;;;14.50;57.68;96047.91;4858385;29;20494;-78
2021/03/28 12:58:22;;;;;;;21.87;17.20;;;;;;;14.44;58.43;96051.03;4862237;29;20511;-79
2021/03/28 13:00:53;;;;;;;23.67;16.93;;;;;;;14.26;59.08;96064.75;4862314;29;20478;-79
2021/03/28 13:03:33;;;;;;;22.10;17.43;;;;;;;14.13;60.13;96058.75;4860585;29;20450;-80
2021/03/28 13:06:18;;;;;;;21.57;16.47;;;;;;;14.04;60.71;96051.59;4860375;29;20851;-80
2021/03/28 13:08:49;;;;;;;25.40;18.83;;;;;;;13.96;61.04;96059.28;4844055;29;20459;-80
2021/03/28 13:11:17;;;;;;;23.87;17.53;;;;;;;13.98;61.21;96054.72;4857936;29;21010;-80
2021/03/28 13:13:48;;;;;;;26.50;19.53;;;;;;;14.04;61.21;96046.31;4862037;29;20934;-80
2021/03/28 13:16:26;;;;;;;24.33;17.10;;;;;;;14.09;60.81;96041.50;4917502;29;20803;-81